Webbwood, Canada
Current Conditions -  °F | °C
As of 7:27 PM on Sunday 23 Nov 2014 (Local Time) from CYZE Reporting Station
Light Rain Light Rain  
Wind Chill: 35°   Ceiling: 500
Heat Index: 43°   Visibility: 2.2mi
Dew Point: 43°   Wind: 18mph
Humidity: 100%   Direction: 160°SSE
Pressure: 29.6"   Gusts: 26mph
Location:  46.27°N, 81.88°W
Report Text: CYZE 240027Z AUTO 16016G23KT 2 1/4SM -RA BR OVC005 06/06 A2960 RMK SLP028
Loading
Personal Weather Stations






























Interactive Weather Map New forecast layout! Learn more

10-Day Weather Forecast

Advertisements
Track Severe Weather on mobile